sensor_id;sensor_type;location;lat;lon;timestamp;pressure;altitude;pressure_sealevel;temperature;humidity
21574;BME280;10948;48.706;9.258;2023-05-25T00:00:06;98131.44;;;11.10;85.44
21574;BME280;10948;48.706;9.258;2023-05-25T00:02:32;98135.06;;;10.92;85.29
21574;BME280;10948;48.706;9.258;2023-05-25T00:04:57;98130.91;;;11.19;83.67
21574;BME280;10948;48.706;9.258;2023-05-25T00:07:24;98131.66;;;11.21;82.06
21574;BME280;10948;48.706;9.258;2023-05-25T00:09:50;98135.22;;;11.34;80.79
21574;BME280;10948;48.706;9.258;2023-05-25T00:12:15;98131.38;;;11.25;80.98
21574;BME280;10948;48.706;9.258;2023-05-25T00:14:40;98135.91;;;11.37;79.74
21574;BME280;10948;48.706;9.258;2023-05-25T00:17:06;98132.69;;;11.32;80.36
21574;BME280;10948;48.706;9.258;2023-05-25T00:19:33;98127.16;;;11.38;80.56
21574;BME280;10948;48.706;9.258;2023-05-25T00:21:59;98129.41;;;11.60;78.81
21574;BME280;10948;48.706;9.258;2023-05-25T00:24:27;98128.66;;;11.58;77.43
21574;BME280;10948;48.706;9.258;2023-05-25T00:26:52;98128.28;;;11.64;77.60
21574;BME280;10948;48.706;9.258;2023-05-25T00:29:17;98127.16;;;11.68;77.34
21574;BME280;10948;48.706;9.258;2023-05-25T00:31:43;98124.41;;;11.71;76.96
21574;BME280;10948;48.706;9.258;2023-05-25T00:34:08;98131.72;;;11.64;75.87
21574;BME280;10948;48.706;9.258;2023-05-25T00:36:33;98130.91;;;11.64;76.54
21574;BME280;10948;48.706;9.258;2023-05-25T00:38:59;98141.16;;;11.81;73.68
21574;BME280;10948;48.706;9.258;2023-05-25T00:41:24;98134.13;;;11.83;73.45
21574;BME280;10948;48.706;9.258;2023-05-25T00:43:51;98138.19;;;11.87;73.00
21574;BME280;10948;48.706;9.258;2023-05-25T00:46:16;98138.78;;;11.92;73.22
21574;BME280;10948;48.706;9.258;2023-05-25T00:48:41;98129.06;;;11.80;72.44
21574;BME280;10948;48.706;9.258;2023-05-25T00:51:07;98130.13;;;11.62;73.94
21574;BME280;10948;48.706;9.258;2023-05-25T00:53:33;98125.13;;;11.59;75.26
21574;BME280;10948;48.706;9.258;2023-05-25T00:58:26;98118.22;;;11.58;74.64
21574;BME280;10948;48.706;9.258;2023-05-25T01:00:55;98116.84;;;11.66;73.53
21574;BME280;10948;48.706;9.258;2023-05-25T01:03:21;98117.44;;;11.56;74.10
21574;BME280;10948;48.706;9.258;2023-05-25T01:05:51;98113.13;;;11.55;74.21
21574;BME280;10948;48.706;9.258;2023-05-25T01:08:18;98113.69;;;11.46;73.29
21574;BME280;10948;48.706;9.258;2023-05-25T01:10:45;98112.00;;;11.45;74.38
21574;BME280;10948;48.706;9.258;2023-05-25T01:13:12;98110.53;;;11.55;75.05
21574;BME280;10948;48.706;9.258;2023-05-25T01:15:38;98113.50;;;11.49;74.05
21574;BME280;10948;48.706;9.258;2023-05-25T01:18:04;98103.81;;;11.37;74.56
21574;BME280;10948;48.706;9.258;2023-05-25T01:20:29;98106.13;;;11.41;76.00
21574;BME280;10948;48.706;9.258;2023-05-25T01:22:56;98110.69;;;11.38;76.96
21574;BME280;10948;48.706;9.258;2023-05-25T01:25:30;98101.03;;;11.54;75.08
21574;BME280;10948;48.706;9.258;2023-05-25T01:27:59;98105.63;;;11.35;75.01
21574;BME280;10948;48.706;9.258;2023-05-25T01:30:27;98114.47;;;11.03;76.16
21574;BME280;10948;48.706;9.258;2023-05-25T01:32:54;98111.41;;;11.10;77.99
21574;BME280;10948;48.706;9.258;2023-05-25T01:35:20;98105.78;;;11.18;77.73
21574;BME280;10948;48.706;9.258;2023-05-25T01:37:46;98107.59;;;11.16;77.03
21574;BME280;10948;48.706;9.258;2023-05-25T01:40:14;98112.25;;;11.11;77.33
21574;BME280;10948;48.706;9.258;2023-05-25T01:42:40;98111.69;;;11.35;75.79
21574;BME280;10948;48.706;9.258;2023-05-25T01:45:06;98105.81;;;11.32;75.62
21574;BME280;10948;48.706;9.258;2023-05-25T01:47:34;98110.03;;;11.34;75.73
21574;BME280;10948;48.706;9.258;2023-05-25T01:50:05;98110.31;;;11.14;76.32
21574;BME280;10948;48.706;9.258;2023-05-25T01:52:34;98111.06;;;11.16;76.33
21574;BME280;10948;48.706;9.258;2023-05-25T01:55:02;98112.25;;;11.11;76.08
21574;BME280;10948;48.706;9.258;2023-05-25T01:57:29;98114.28;;;11.06;76.27
21574;BME280;10948;48.706;9.258;2023-05-25T01:59:58;98117.47;;;11.11;75.84
21574;BME280;10948;48.706;9.258;2023-05-25T02:02:26;98119.41;;;11.07;77.18
21574;BME280;10948;48.706;9.258;2023-05-25T02:04:52;98106.13;;;11.12;78.18
21574;BME280;10948;48.706;9.258;2023-05-25T02:07:18;98113.19;;;11.10;78.09
21574;BME280;10948;48.706;9.258;2023-05-25T02:09:43;98108.06;;;11.08;78.04
21574;BME280;10948;48.706;9.258;2023-05-25T02:12:08;98107.31;;;11.06;77.70
21574;BME280;10948;48.706;9.258;2023-05-25T02:14:34;98103.88;;;11.06;78.46
21574;BME280;10948;48.706;9.258;2023-05-25T02:16:59;98102.53;;;10.68;79.77
21574;BME280;10948;48.706;9.258;2023-05-25T02:19:26;98103.06;;;10.90;81.12
21574;BME280;10948;48.706;9.258;2023-05-25T02:21:51;98094.47;;;10.73;81.70
21574;BME280;10948;48.706;9.258;2023-05-25T02:24:16;98093.47;;;10.75;82.59
21574;BME280;10948;48.706;9.258;2023-05-25T02:26:42;98095.16;;;10.45;83.72
21574;BME280;10948;48.706;9.258;2023-05-25T02:29:08;98097.00;;;10.28;85.95
21574;BME280;10948;48.706;9.258;2023-05-25T02:31:33;98098.84;;;10.41;87.68
21574;BME280;10948;48.706;9.258;2023-05-25T02:33:59;98097.84;;;10.44;87.18
21574;BME280;10948;48.706;9.258;2023-05-25T02:36:24;98092.97;;;10.38;87.39
21574;BME280;10948;48.706;9.258;2023-05-25T02:38:50;98096.16;;;10.27;89.09
21574;BME280;10948;48.706;9.258;2023-05-25T02:41:17;98089.78;;;10.17;90.55
21574;BME280;10948;48.706;9.258;2023-05-25T02:43:42;98092.81;;;10.25;92.12
21574;BME280;10948;48.706;9.258;2023-05-25T02:46:07;98093.13;;;10.19;91.88
21574;BME280;10948;48.706;9.258;2023-05-25T02:48:33;98100.34;;;9.97;91.28
21574;BME280;10948;48.706;9.258;2023-05-25T02:50:58;98106.63;;;9.93;92.81
21574;BME280;10948;48.706;9.258;2023-05-25T02:53:23;98110.56;;;10.17;93.74
21574;BME280;10948;48.706;9.258;2023-05-25T02:55:48;98108.09;;;9.82;95.33
21574;BME280;10948;48.706;9.258;2023-05-25T02:58:13;98100.81;;;10.05;93.15
21574;BME280;10948;48.706;9.258;2023-05-25T03:00:39;98105.53;;;10.14;91.29
21574;BME280;10948;48.706;9.258;2023-05-25T03:03:06;98097.44;;;10.03;90.98
21574;BME280;10948;48.706;9.258;2023-05-25T03:05:31;98100.94;;;10.02;91.09
21574;BME280;10948;48.706;9.258;2023-05-25T03:07:59;98103.28;;;9.91;93.11
21574;BME280;10948;48.706;9.258;2023-05-25T03:10:24;98105.25;;;9.86;95.38
21574;BME280;10948;48.706;9.258;2023-05-25T03:12:50;98109.66;;;10.01;96.61
21574;BME280;10948;48.706;9.258;2023-05-25T03:15:15;98110.22;;;9.91;97.70
21574;BME280;10948;48.706;9.258;2023-05-25T03:17:40;98107.84;;;9.86;96.89
21574;BME280;10948;48.706;9.258;2023-05-25T03:20:06;98111.63;;;9.96;96.93
21574;BME280;10948;48.706;9.258;2023-05-25T03:22:34;98112.13;;;9.87;97.12
21574;BME280;10948;48.706;9.258;2023-05-25T03:24:59;98107.97;;;10.00;94.58
21574;BME280;10948;48.706;9.258;2023-05-25T03:27:24;98106.09;;;10.04;93.81
21574;BME280;10948;48.706;9.258;2023-05-25T03:29:50;98108.16;;;9.97;95.34
21574;BME280;10948;48.706;9.258;2023-05-25T03:32:15;98103.25;;;10.08;94.63
21574;BME280;10948;48.706;9.258;2023-05-25T03:34:40;98101.06;;;9.84;94.82
21574;BME280;10948;48.706;9.258;2023-05-25T03:37:06;98101.84;;;10.01;93.86
21574;BME280;10948;48.706;9.258;2023-05-25T03:39:31;98100.25;;;9.99;93.68
21574;BME280;10948;48.706;9.258;2023-05-25T03:41:57;98100.31;;;10.14;93.04
21574;BME280;10948;48.706;9.258;2023-05-25T03:44:22;98106.84;;;10.06;92.35
21574;BME280;10948;48.706;9.258;2023-05-25T03:46:48;98105.13;;;10.22;92.53
21574;BME280;10948;48.706;9.258;2023-05-25T03:49:13;98111.53;;;10.47;91.33
21574;BME280;10948;48.706;9.258;2023-05-25T03:51:42;98104.06;;;10.41;90.54
21574;BME280;10948;48.706;9.258;2023-05-25T03:54:07;98110.19;;;10.40;92.07
21574;BME280;10948;48.706;9.258;2023-05-25T03:56:32;98116.81;;;10.30;91.46
21574;BME280;10948;48.706;9.258;2023-05-25T03:58:57;98117.34;;;10.52;90.63
21574;BME280;10948;48.706;9.258;2023-05-25T04:01:24;98123.56;;;10.65;88.89
21574;BME280;10948;48.706;9.258;2023-05-25T04:03:51;98115.22;;;10.74;88.25
21574;BME280;10948;48.706;9.258;2023-05-25T04:06:16;98123.44;;;10.82;87.21
21574;BME280;10948;48.706;9.258;2023-05-25T04:08:43;98118.84;;;10.87;87.57
21574;BME280;10948;48.706;9.258;2023-05-25T04:11:09;98122.09;;;10.90;88.21
21574;BME280;10948;48.706;9.258;2023-05-25T04:13:34;98126.13;;;10.96;87.09
21574;BME280;10948;48.706;9.258;2023-05-25T04:16:00;98114.97;;;10.94;87.32
21574;BME280;10948;48.706;9.258;2023-05-25T04:18:25;98125.72;;;11.03;87.19
21574;BME280;10948;48.706;9.258;2023-05-25T04:20:51;98124.88;;;11.03;86.81
21574;BME280;10948;48.706;9.258;2023-05-25T04:23:16;98124.84;;;11.18;86.32
21574;BME280;10948;48.706;9.258;2023-05-25T04:25:43;98122.88;;;11.37;86.10
21574;BME280;10948;48.706;9.258;2023-05-25T04:28:09;98125.41;;;11.39;85.48
21574;BME280;10948;48.706;9.258;2023-05-25T04:30:36;98131.25;;;11.58;84.19
21574;BME280;10948;48.706;9.258;2023-05-25T04:33:02;98127.00;;;11.71;83.18
21574;BME280;10948;48.706;9.258;2023-05-25T04:35:27;98126.09;;;11.86;82.19
21574;BME280;10948;48.706;9.258;2023-05-25T04:37:53;98123.50;;;12.00;81.88
21574;BME280;10948;48.706;9.258;2023-05-25T04:40:18;98128.81;;;12.12;80.38
21574;BME280;10948;48.706;9.258;2023-05-25T04:42:45;98127.25;;;12.10;80.43
21574;BME280;10948;48.706;9.258;2023-05-25T04:45:12;98125.28;;;12.27;78.96
21574;BME280;10948;48.706;9.258;2023-05-25T04:47:41;98120.53;;;12.34;79.33
21574;BME280;10948;48.706;9.258;2023-05-25T04:50:07;98129.09;;;12.50;78.82
21574;BME280;10948;48.706;9.258;2023-05-25T04:52:33;98128.34;;;12.48;78.62
21574;BME280;10948;48.706;9.258;2023-05-25T04:54:59;98131.84;;;12.89;76.75
21574;BME280;10948;48.706;9.258;2023-05-25T04:57:27;98139.13;;;12.98;75.97
21574;BME280;10948;48.706;9.258;2023-05-25T04:59:56;98141.72;;;12.98;75.74
21574;BME280;10948;48.706;9.258;2023-05-25T05:02:22;98141.94;;;13.21;75.78
21574;BME280;10948;48.706;9.258;2023-05-25T05:04:47;98141.66;;;13.38;74.40
21574;BME280;10948;48.706;9.258;2023-05-25T05:07:16;98138.47;;;13.47;74.09
21574;BME280;10948;48.706;9.258;2023-05-25T05:09:41;98139.50;;;13.45;73.10
21574;BME280;10948;48.706;9.258;2023-05-25T05:12:07;98144.91;;;13.42;73.71
21574;BME280;10948;48.706;9.258;2023-05-25T05:14:32;98139.22;;;13.62;72.51
21574;BME280;10948;48.706;9.258;2023-05-25T05:16:57;98137.81;;;14.08;71.11
21574;BME280;10948;48.706;9.258;2023-05-25T05:19:22;98148.25;;;14.22;70.87
21574;BME280;10948;48.706;9.258;2023-05-25T05:21:48;98153.03;;;14.28;68.71
21574;BME280;10948;48.706;9.258;2023-05-25T05:24:13;98159.22;;;14.52;68.50
21574;BME280;10948;48.706;9.258;2023-05-25T05:26:38;98157.94;;;14.70;68.58
21574;BME280;10948;48.706;9.258;2023-05-25T05:29:03;98154.47;;;14.82;67.02
21574;BME280;10948;48.706;9.258;2023-05-25T05:31:29;98157.28;;;15.15;66.38
21574;BME280;10948;48.706;9.258;2023-05-25T05:33:55;98159.41;;;15.10;65.83
21574;BME280;10948;48.706;9.258;2023-05-25T05:36:21;98164.19;;;15.52;65.78
21574;BME280;10948;48.706;9.258;2023-05-25T05:38:46;98167.06;;;15.49;64.53
21574;BME280;10948;48.706;9.258;2023-05-25T05:41:12;98172.13;;;15.74;63.96
21574;BME280;10948;48.706;9.258;2023-05-25T05:43:41;98175.41;;;16.23;63.85
21574;BME280;10948;48.706;9.258;2023-05-25T05:46:08;98177.63;;;15.71;63.72
21574;BME280;10948;48.706;9.258;2023-05-25T05:48:34;98170.91;;;15.67;63.92
21574;BME280;10948;48.706;9.258;2023-05-25T05:51:00;98181.16;;;15.59;63.59
21574;BME280;10948;48.706;9.258;2023-05-25T05:53:26;98188.03;;;15.49;63.33
21574;BME280;10948;48.706;9.258;2023-05-25T05:55:51;98185.88;;;15.54;63.85
21574;BME280;10948;48.706;9.258;2023-05-25T05:58:21;98193.00;;;15.99;62.60
21574;BME280;10948;48.706;9.258;2023-05-25T06:00:47;98195.34;;;16.36;62.84
21574;BME280;10948;48.706;9.258;2023-05-25T06:03:12;98188.16;;;16.16;62.58
21574;BME280;10948;48.706;9.258;2023-05-25T06:05:38;98192.06;;;16.45;62.76
21574;BME280;10948;48.706;9.258;2023-05-25T06:08:03;98193.38;;;16.51;62.27
21574;BME280;10948;48.706;9.258;2023-05-25T06:10:28;98194.09;;;17.18;61.15
21574;BME280;10948;48.706;9.258;2023-05-25T06:12:54;98193.84;;;17.21;61.44
21574;BME280;10948;48.706;9.258;2023-05-25T06:15:19;98199.22;;;17.73;60.13
21574;BME280;10948;48.706;9.258;2023-05-25T06:17:44;98196.53;;;17.95;59.69
21574;BME280;10948;48.706;9.258;2023-05-25T06:20:10;98201.53;;;17.98;59.63
21574;BME280;10948;48.706;9.258;2023-05-25T06:22:35;98193.50;;;18.00;59.36
21574;BME280;10948;48.706;9.258;2023-05-25T06:25:00;98193.28;;;18.44;58.88
21574;BME280;10948;48.706;9.258;2023-05-25T06:27:26;98192.72;;;18.70;58.13
21574;BME280;10948;48.706;9.258;2023-05-25T06:29:51;98196.56;;;18.36;57.17
21574;BME280;10948;48.706;9.258;2023-05-25T06:32:16;98201.53;;;18.90;57.36
21574;BME280;10948;48.706;9.258;2023-05-25T06:34:41;98209.00;;;18.75;57.74
21574;BME280;10948;48.706;9.258;2023-05-25T06:37:06;98214.22;;;18.66;56.26
21574;BME280;10948;48.706;9.258;2023-05-25T06:39:32;98213.53;;;18.73;56.64
21574;BME280;10948;48.706;9.258;2023-05-25T06:41:57;98211.66;;;18.55;56.44
21574;BME280;10948;48.706;9.258;2023-05-25T06:44:22;98211.63;;;18.14;56.96
21574;BME280;10948;48.706;9.258;2023-05-25T06:46:47;98209.22;;;18.42;57.57
21574;BME280;10948;48.706;9.258;2023-05-25T06:49:13;98206.81;;;18.90;57.40
21574;BME280;10948;48.706;9.258;2023-05-25T06:51:38;98214.97;;;18.77;57.03
21574;BME280;10948;48.706;9.258;2023-05-25T06:54:03;98214.91;;;17.75;59.56
21574;BME280;10948;48.706;9.258;2023-05-25T06:56:30;98217.25;;;17.35;61.03
21574;BME280;10948;48.706;9.258;2023-05-25T06:58:55;98216.47;;;17.02;61.82
21574;BME280;10948;48.706;9.258;2023-05-25T07:01:20;98220.66;;;17.04;62.47
21574;BME280;10948;48.706;9.258;2023-05-25T07:03:45;98223.53;;;17.02;62.58
21574;BME280;10948;48.706;9.258;2023-05-25T07:06:11;98222.34;;;16.95;62.35
21574;BME280;10948;48.706;9.258;2023-05-25T07:08:40;98230.78;;;17.31;62.53
21574;BME280;10948;48.706;9.258;2023-05-25T07:11:06;98225.41;;;17.43;63.16
21574;BME280;10948;48.706;9.258;2023-05-25T07:13:34;98236.16;;;17.29;62.86
21574;BME280;10948;48.706;9.258;2023-05-25T07:16:00;98239.75;;;16.85;63.65
21574;BME280;10948;48.706;9.258;2023-05-25T07:18:25;98239.25;;;16.58;65.04
21574;BME280;10948;48.706;9.258;2023-05-25T07:20:50;98243.66;;;16.57;64.50
21574;BME280;10948;48.706;9.258;2023-05-25T07:23:16;98244.53;;;16.69;65.24
21574;BME280;10948;48.706;9.258;2023-05-25T07:25:41;98247.63;;;16.63;64.60
21574;BME280;10948;48.706;9.258;2023-05-25T07:28:07;98250.53;;;16.82;65.51
21574;BME280;10948;48.706;9.258;2023-05-25T07:30:32;98241.41;;;16.53;66.17
21574;BME280;10948;48.706;9.258;2023-05-25T07:32:58;98252.03;;;16.51;65.09
21574;BME280;10948;48.706;9.258;2023-05-25T07:35:23;98248.84;;;16.70;64.51
21574;BME280;10948;48.706;9.258;2023-05-25T07:37:56;98251.59;;;16.79;64.95
21574;BME280;10948;48.706;9.258;2023-05-25T07:40:21;98249.06;;;16.67;65.17
21574;BME280;10948;48.706;9.258;2023-05-25T07:42:47;98251.97;;;16.75;64.05
21574;BME280;10948;48.706;9.258;2023-05-25T07:45:12;98260.47;;;17.11;63.60
21574;BME280;10948;48.706;9.258;2023-05-25T07:47:37;98261.78;;;17.27;63.24
21574;BME280;10948;48.706;9.258;2023-05-25T07:50:02;98260.97;;;18.43;61.21
21574;BME280;10948;48.706;9.258;2023-05-25T07:52:28;98251.38;;;20.21;56.67
21574;BME280;10948;48.706;9.258;2023-05-25T07:54:53;98259.97;;;22.67;51.22
21574;BME280;10948;48.706;9.258;2023-05-25T07:57:18;98250.09;;;21.72;49.83
21574;BME280;10948;48.706;9.258;2023-05-25T07:59:43;98254.13;;;23.40;48.65
21574;BME280;10948;48.706;9.258;2023-05-25T08:02:09;98241.41;;;24.89;46.17
21574;BME280;10948;48.706;9.258;2023-05-25T08:04:34;98244.69;;;28.48;40.30
21574;BME280;10948;48.706;9.258;2023-05-25T08:06:59;98249.88;;;28.35;39.67
21574;BME280;10948;48.706;9.258;2023-05-25T08:09:25;98237.38;;;28.63;37.19
21574;BME280;10948;48.706;9.258;2023-05-25T08:11:51;98245.38;;;30.26;36.66
21574;BME280;10948;48.706;9.258;2023-05-25T08:14:16;98247.53;;;31.91;34.52
21574;BME280;10948;48.706;9.258;2023-05-25T08:16:41;98241.22;;;32.48;34.19
21574;BME280;10948;48.706;9.258;2023-05-25T08:19:07;98253.69;;;31.42;33.93
21574;BME280;10948;48.706;9.258;2023-05-25T08:21:32;98259.19;;;32.29;33.91
21574;BME280;10948;48.706;9.258;2023-05-25T08:23:59;98253.91;;;33.63;32.32
21574;BME280;10948;48.706;9.258;2023-05-25T08:26:28;98255.88;;;27.22;39.45
21574;BME280;10948;48.706;9.258;2023-05-25T08:28:53;98248.72;;;30.48;36.74
21574;BME280;10948;48.706;9.258;2023-05-25T08:31:19;98250.94;;;31.74;34.91
21574;BME280;10948;48.706;9.258;2023-05-25T08:33:44;98257.31;;;31.79;35.05
21574;BME280;10948;48.706;9.258;2023-05-25T08:36:09;98263.41;;;32.81;33.30
21574;BME280;10948;48.706;9.258;2023-05-25T08:38:35;98260.72;;;34.49;32.06
21574;BME280;10948;48.706;9.258;2023-05-25T08:41:02;98246.19;;;28.78;37.03
21574;BME280;10948;48.706;9.258;2023-05-25T08:43:28;98254.50;;;31.48;35.83
21574;BME280;10948;48.706;9.258;2023-05-25T08:45:54;98250.69;;;34.20;32.66
21574;BME280;10948;48.706;9.258;2023-05-25T08:48:23;98265.66;;;33.08;31.55
21574;BME280;10948;48.706;9.258;2023-05-25T08:50:51;98261.56;;;35.60;31.25
21574;BME280;10948;48.706;9.258;2023-05-25T08:53:17;98262.97;;;35.62;30.53
21574;BME280;10948;48.706;9.258;2023-05-25T08:55:43;98260.75;;;35.48;31.39
21574;BME280;10948;48.706;9.258;2023-05-25T08:58:13;98254.88;;;27.23;40.35
21574;BME280;10948;48.706;9.258;2023-05-25T09:00:47;98241.75;;;33.36;33.66
21574;BME280;10948;48.706;9.258;2023-05-25T09:03:15;98258.47;;;33.27;32.65
21574;BME280;10948;48.706;9.258;2023-05-25T09:05:41;98249.88;;;31.68;34.27
21574;BME280;10948;48.706;9.258;2023-05-25T09:08:07;98242.94;;;26.15;41.42
21574;BME280;10948;48.706;9.258;2023-05-25T09:10:34;98244.91;;;27.17;41.16
21574;BME280;10948;48.706;9.258;2023-05-25T09:12:59;98239.88;;;27.87;40.59
21574;BME280;10948;48.706;9.258;2023-05-25T09:15:25;98247.78;;;26.34;42.67
21574;BME280;10948;48.706;9.258;2023-05-25T09:17:50;98249.06;;;24.84;45.30
21574;BME280;10948;48.706;9.258;2023-05-25T09:20:16;98248.03;;;24.05;46.56
21574;BME280;10948;48.706;9.258;2023-05-25T09:22:42;98259.78;;;22.86;48.53
21574;BME280;10948;48.706;9.258;2023-05-25T09:25:08;98257.03;;;22.18;49.29
21574;BME280;10948;48.706;9.258;2023-05-25T09:27:34;98269.41;;;22.44;49.68
21574;BME280;10948;48.706;9.258;2023-05-25T09:30:01;98260.97;;;22.31;50.11
21574;BME280;10948;48.706;9.258;2023-05-25T09:32:28;98261.25;;;23.06;49.35
21574;BME280;10948;48.706;9.258;2023-05-25T09:34:54;98261.78;;;22.92;49.40
21574;BME280;10948;48.706;9.258;2023-05-25T09:37:21;98263.50;;;23.52;48.55
21574;BME280;10948;48.706;9.258;2023-05-25T09:39:47;98251.66;;;23.13;48.70
21574;BME280;10948;48.706;9.258;2023-05-25T09:42:12;98261.88;;;22.05;50.74
21574;BME280;10948;48.706;9.258;2023-05-25T09:44:38;98259.63;;;23.13;50.53
21574;BME280;10948;48.706;9.258;2023-05-25T09:47:03;98255.28;;;22.87;49.49
21574;BME280;10948;48.706;9.258;2023-05-25T09:49:29;98266.34;;;23.25;50.52
21574;BME280;10948;48.706;9.258;2023-05-25T09:51:54;98259.69;;;23.21;49.71
21574;BME280;10948;48.706;9.258;2023-05-25T09:54:20;98255.44;;;23.36;50.03
21574;BME280;10948;48.706;9.258;2023-05-25T09:56:46;98250.94;;;23.78;48.77
21574;BME280;10948;48.706;9.258;2023-05-25T09:59:12;98252.56;;;23.71;47.37
21574;BME280;10948;48.706;9.258;2023-05-25T10:01:38;98258.19;;;25.05;47.37
21574;BME280;10948;48.706;9.258;2023-05-25T10:04:03;98260.03;;;23.67;48.60
21574;BME280;10948;48.706;9.258;2023-05-25T10:06:29;98264.66;;;26.12;44.30
21574;BME280;10948;48.706;9.258;2023-05-25T10:08:56;98254.38;;;25.08;46.26
21574;BME280;10948;48.706;9.258;2023-05-25T10:11:22;98255.06;;;24.46;46.86
21574;BME280;10948;48.706;9.258;2023-05-25T10:13:48;98268.94;;;25.44;46.09
21574;BME280;10948;48.706;9.258;2023-05-25T10:16:14;98270.75;;;25.98;44.80
21574;BME280;10948;48.706;9.258;2023-05-25T10:18:47;98267.72;;;24.76;46.58
21574;BME280;10948;48.706;9.258;2023-05-25T10:21:15;98258.16;;;27.11;43.98
21574;BME280;10948;48.706;9.258;2023-05-25T10:23:43;98259.06;;;24.50;46.99
21574;BME280;10948;48.706;9.258;2023-05-25T10:26:19;98262.69;;;25.13;47.37
21574;BME280;10948;48.706;9.258;2023-05-25T10:28:47;98266.97;;;25.22;46.56
21574;BME280;10948;48.706;9.258;2023-05-25T10:31:14;98267.16;;;27.10;42.96
21574;BME280;10948;48.706;9.258;2023-05-25T10:33:41;98260.13;;;26.35;43.15
21574;BME280;10948;48.706;9.258;2023-05-25T10:36:08;98261.78;;;27.61;43.77
21574;BME280;10948;48.706;9.258;2023-05-25T10:38:43;98256.09;;;28.00;42.65
21574;BME280;10948;48.706;9.258;2023-05-25T10:41:09;98262.88;;;27.23;43.54
21574;BME280;10948;48.706;9.258;2023-05-25T10:43:35;98262.88;;;29.01;41.90
21574;BME280;10948;48.706;9.258;2023-05-25T10:46:01;98253.38;;;25.25;44.54
21574;BME280;10948;48.706;9.258;2023-05-25T10:48:36;98253.47;;;27.42;42.53
21574;BME280;10948;48.706;9.258;2023-05-25T10:51:02;98251.03;;;25.60;45.00
21574;BME280;10948;48.706;9.258;2023-05-25T10:53:27;98259.56;;;25.86;45.60
21574;BME280;10948;48.706;9.258;2023-05-25T10:58:22;98254.81;;;25.19;47.19
21574;BME280;10948;48.706;9.258;2023-05-25T11:00:57;98267.31;;;27.16;43.91
21574;BME280;10948;48.706;9.258;2023-05-25T11:03:46;98262.28;;;26.62;44.11
21574;BME280;10948;48.706;9.258;2023-05-25T11:06:08;98253.63;;;25.46;47.16
21574;BME280;10948;48.706;9.258;2023-05-25T11:08:47;98250.19;;;25.68;46.58
21574;BME280;10948;48.706;9.258;2023-05-25T11:11:13;98258.91;;;25.54;47.45
21574;BME280;10948;48.706;9.258;2023-05-25T11:13:42;98256.22;;;24.27;47.99
21574;BME280;10948;48.706;9.258;2023-05-25T11:16:18;98253.56;;;24.51;48.05
21574;BME280;10948;48.706;9.258;2023-05-25T11:18:44;98256.00;;;25.17;47.73
21574;BME280;10948;48.706;9.258;2023-05-25T11:21:20;98255.91;;;24.46;49.16
21574;BME280;10948;48.706;9.258;2023-05-25T11:23:56;98257.41;;;24.89;49.04
21574;BME280;10948;48.706;9.258;2023-05-25T11:26:23;98250.38;;;24.08;49.29
21574;BME280;10948;48.706;9.258;2023-05-25T11:28:52;98247.53;;;23.93;48.80
21574;BME280;10948;48.706;9.258;2023-05-25T11:31:21;98243.28;;;24.48;49.15
21574;BME280;10948;48.706;9.258;2023-05-25T11:33:47;98240.44;;;24.82;48.85
21574;BME280;10948;48.706;9.258;2023-05-25T11:36:13;98242.13;;;25.76;48.19
21574;BME280;10948;48.706;9.258;2023-05-25T11:38:42;98243.41;;;24.07;49.04
21574;BME280;10948;48.706;9.258;2023-05-25T11:41:16;98234.72;;;23.89;49.90
21574;BME280;10948;48.706;9.258;2023-05-25T11:43:43;98247.06;;;24.06;50.09
21574;BME280;10948;48.706;9.258;2023-05-25T11:46:09;98247.72;;;24.00;48.70
21574;BME280;10948;48.706;9.258;2023-05-25T11:48:34;98244.91;;;24.17;49.98
21574;BME280;10948;48.706;9.258;2023-05-25T11:51:06;98241.66;;;23.82;49.77
21574;BME280;10948;48.706;9.258;2023-05-25T11:53:31;98239.47;;;23.77;49.60
21574;BME280;10948;48.706;9.258;2023-05-25T11:55:56;98242.13;;;24.59;49.21
21574;BME280;10948;48.706;9.258;2023-05-25T11:58:22;98249.00;;;23.88;50.30
21574;BME280;10948;48.706;9.258;2023-05-25T12:00:48;98239.78;;;24.64;48.91
21574;BME280;10948;48.706;9.258;2023-05-25T12:03:30;98244.25;;;26.41;47.62
21574;BME280;10948;48.706;9.258;2023-05-25T12:05:58;98239.78;;;26.34;46.36
21574;BME280;10948;48.706;9.258;2023-05-25T12:08:30;98242.44;;;25.81;46.72
21574;BME280;10948;48.706;9.258;2023-05-25T12:10:55;98231.88;;;25.57;46.62
21574;BME280;10948;48.706;9.258;2023-05-25T12:13:21;98241.44;;;24.33;48.56
21574;BME280;10948;48.706;9.258;2023-05-25T12:15:46;98244.78;;;24.67;48.37
21574;BME280;10948;48.706;9.258;2023-05-25T12:18:12;98244.41;;;24.38;48.41
21574;BME280;10948;48.706;9.258;2023-05-25T12:20:37;98242.41;;;24.16;48.55
21574;BME280;10948;48.706;9.258;2023-05-25T12:23:05;98238.88;;;23.50;49.44
21574;BME280;10948;48.706;9.258;2023-05-25T12:25:30;98239.78;;;24.32;48.42
21574;BME280;10948;48.706;9.258;2023-05-25T12:28:11;98247.72;;;24.16;49.00
21574;BME280;10948;48.706;9.258;2023-05-25T12:30:37;98233.44;;;24.49;48.75
21574;BME280;10948;48.706;9.258;2023-05-25T12:33:02;98232.25;;;24.27;48.72
21574;BME280;10948;48.706;9.258;2023-05-25T12:35:28;98234.59;;;24.30;49.56
21574;BME280;10948;48.706;9.258;2023-05-25T12:38:09;98232.53;;;25.28;48.29
21574;BME280;10948;48.706;9.258;2023-05-25T12:40:35;98232.47;;;24.74;47.84
21574;BME280;10948;48.706;9.258;2023-05-25T12:43:00;98237.09;;;24.88;47.33
21574;BME280;10948;48.706;9.258;2023-05-25T12:45:26;98241.72;;;25.02;49.11
21574;BME280;10948;48.706;9.258;2023-05-25T12:47:52;98237.91;;;25.51;46.63
21574;BME280;10948;48.706;9.258;2023-05-25T12:50:17;98237.66;;;25.22;48.21
21574;BME280;10948;48.706;9.258;2023-05-25T12:52:44;98234.44;;;24.80;48.78
21574;BME280;10948;48.706;9.258;2023-05-25T12:55:23;98230.75;;;24.89;49.41
21574;BME280;10948;48.706;9.258;2023-05-25T12:57:55;98232.28;;;24.83;50.28
21574;BME280;10948;48.706;9.258;2023-05-25T13:00:25;98229.44;;;24.85;49.32